sensor_id;sensor_type;location;lat;lon;timestamp;temperature;humidity
6536;DHT22;34330;52.08032700;5.40923460;2022-12-24T00:01:21;13.10;95.30
6536;DHT22;34330;52.08032700;5.40923460;2022-12-24T00:03:49;13.10;95.30
6536;DHT22;34330;52.08032700;5.40923460;2022-12-24T00:06:19;13.10;95.30
6536;DHT22;34330;52.08032700;5.40923460;2022-12-24T00:08:50;13.10;95.30
6536;DHT22;34330;52.08032700;5.40923460;2022-12-24T00:11:19;13.10;95.30
6536;DHT22;34330;52.08032700;5.40923460;2022-12-24T00:13:47;13.10;95.20
6536;DHT22;34330;52.08032700;5.40923460;2022-12-24T00:16:15;13.10;95.20
6536;DHT22;34330;52.08032700;5.40923460;2022-12-24T00:18:43;13.00;95.20
6536;DHT22;34330;52.08032700;5.40923460;2022-12-24T00:21:13;13.00;95.10
6536;DHT22;34330;52.08032700;5.40923460;2022-12-24T00:23:41;13.00;95.20
6536;DHT22;34330;52.08032700;5.40923460;2022-12-24T00:26:11;13.00;95.10
6536;DHT22;34330;52.08032700;5.40923460;2022-12-24T00:28:39;13.00;95.10
6536;DHT22;34330;52.08032700;5.40923460;2022-12-24T00:31:08;13.00;95.10
6536;DHT22;34330;52.08032700;5.40923460;2022-12-24T00:33:36;13.00;95.10
6536;DHT22;34330;52.08032700;5.40923460;2022-12-24T00:36:05;13.00;95.00
6536;DHT22;34330;52.08032700;5.40923460;2022-12-24T00:38:34;13.00;95.10
6536;DHT22;34330;52.08032700;5.40923460;2022-12-24T00:41:03;13.00;95.00
6536;DHT22;34330;52.08032700;5.40923460;2022-12-24T00:43:32;13.00;95.00
6536;DHT22;34330;52.08032700;5.40923460;2022-12-24T00:46:00;13.00;94.90
6536;DHT22;34330;52.08032700;5.40923460;2022-12-24T00:48:28;13.00;94.80
6536;DHT22;34330;52.08032700;5.40923460;2022-12-24T00:50:56;13.00;94.80
6536;DHT22;34330;52.08032700;5.40923460;2022-12-24T00:53:24;13.00;94.80
6536;DHT22;34330;52.08032700;5.40923460;2022-12-24T00:55:52;12.90;94.70
6536;DHT22;34330;52.08032700;5.40923460;2022-12-24T00:58:23;12.90;94.70
6536;DHT22;34330;52.08032700;5.40923460;2022-12-24T01:00:52;12.90;94.80
6536;DHT22;34330;52.08032700;5.40923460;2022-12-24T01:03:21;12.90;95.10
6536;DHT22;34330;52.08032700;5.40923460;2022-12-24T01:05:50;13.00;94.70
6536;DHT22;34330;52.08032700;5.40923460;2022-12-24T01:08:17;12.80;94.70
6536;DHT22;34330;52.08032700;5.40923460;2022-12-24T01:10:45;12.80;94.70
6536;DHT22;34330;52.08032700;5.40923460;2022-12-24T01:13:13;12.80;94.70
6536;DHT22;34330;52.08032700;5.40923460;2022-12-24T01:15:41;12.80;94.70
6536;DHT22;34330;52.08032700;5.40923460;2022-12-24T01:18:10;12.80;94.60
6536;DHT22;34330;52.08032700;5.40923460;2022-12-24T01:20:38;12.80;94.60
6536;DHT22;34330;52.08032700;5.40923460;2022-12-24T01:23:06;12.70;94.60
6536;DHT22;34330;52.08032700;5.40923460;2022-12-24T01:25:36;12.70;94.60
6536;DHT22;34330;52.08032700;5.40923460;2022-12-24T01:28:05;12.70;94.70
6536;DHT22;34330;52.08032700;5.40923460;2022-12-24T01:30:33;12.80;94.80
6536;DHT22;34330;52.08032700;5.40923460;2022-12-24T01:33:01;12.60;94.60
6536;DHT22;34330;52.08032700;5.40923460;2022-12-24T01:35:30;12.60;94.70
6536;DHT22;34330;52.08032700;5.40923460;2022-12-24T01:37:58;12.60;94.70
6536;DHT22;34330;52.08032700;5.40923460;2022-12-24T01:40:26;12.50;94.60
6536;DHT22;34330;52.08032700;5.40923460;2022-12-24T01:43:15;12.50;94.70
6536;DHT22;34330;52.08032700;5.40923460;2022-12-24T01:45:51;12.50;94.60
6536;DHT22;34330;52.08032700;5.40923460;2022-12-24T01:48:31;12.40;94.60
6536;DHT22;34330;52.08032700;5.40923460;2022-12-24T01:51:05;12.40;94.60
6536;DHT22;34330;52.08032700;5.40923460;2022-12-24T01:53:36;12.40;94.60
6536;DHT22;34330;52.08032700;5.40923460;2022-12-24T01:56:05;12.30;94.60
6536;DHT22;34330;52.08032700;5.40923460;2022-12-24T01:58:35;12.30;94.60
6536;DHT22;34330;52.08032700;5.40923460;2022-12-24T02:01:04;12.30;94.60
6536;DHT22;34330;52.08032700;5.40923460;2022-12-24T02:03:32;12.30;94.60
6536;DHT22;34330;52.08032700;5.40923460;2022-12-24T02:06:02;12.20;94.90
6536;DHT22;34330;52.08032700;5.40923460;2022-12-24T02:08:30;12.20;94.60
6536;DHT22;34330;52.08032700;5.40923460;2022-12-24T02:11:11;12.20;94.70
6536;DHT22;34330;52.08032700;5.40923460;2022-12-24T02:13:40;12.20;94.70
6536;DHT22;34330;52.08032700;5.40923460;2022-12-24T02:16:16;12.10;94.70
6536;DHT22;34330;52.08032700;5.40923460;2022-12-24T02:18:57;12.10;94.70
6536;DHT22;34330;52.08032700;5.40923460;2022-12-24T02:21:41;12.10;94.70
6536;DHT22;34330;52.08032700;5.40923460;2022-12-24T02:24:38;12.10;94.70
6536;DHT22;34330;52.08032700;5.40923460;2022-12-24T02:27:16;12.00;94.70
6536;DHT22;34330;52.08032700;5.40923460;2022-12-24T02:30:03;12.10;94.80
6536;DHT22;34330;52.08032700;5.40923460;2022-12-24T02:32:35;12.00;94.80
6536;DHT22;34330;52.08032700;5.40923460;2022-12-24T02:35:10;12.00;94.80
6536;DHT22;34330;52.08032700;5.40923460;2022-12-24T02:37:41;12.00;94.80
6536;DHT22;34330;52.08032700;5.40923460;2022-12-24T02:40:14;12.00;94.80
6536;DHT22;34330;52.08032700;5.40923460;2022-12-24T02:42:45;11.90;94.80
6536;DHT22;34330;52.08032700;5.40923460;2022-12-24T02:45:21;11.90;94.80
6536;DHT22;34330;52.08032700;5.40923460;2022-12-24T02:47:50;11.90;94.70
6536;DHT22;34330;52.08032700;5.40923460;2022-12-24T02:50:18;11.90;94.80
6536;DHT22;34330;52.08032700;5.40923460;2022-12-24T02:52:47;11.90;94.80
6536;DHT22;34330;52.08032700;5.40923460;2022-12-24T02:55:17;11.80;94.70
6536;DHT22;34330;52.08032700;5.40923460;2022-12-24T02:58:06;11.80;94.80
6536;DHT22;34330;52.08032700;5.40923460;2022-12-24T03:00:49;11.80;94.80
6536;DHT22;34330;52.08032700;5.40923460;2022-12-24T03:03:33;11.80;94.80
6536;DHT22;34330;52.08032700;5.40923460;2022-12-24T03:06:10;11.80;94.80
6536;DHT22;34330;52.08032700;5.40923460;2022-12-24T03:08:46;11.70;94.80
6536;DHT22;34330;52.08032700;5.40923460;2022-12-24T03:11:19;11.70;94.80
6536;DHT22;34330;52.08032700;5.40923460;2022-12-24T03:13:47;11.70;94.80
6536;DHT22;34330;52.08032700;5.40923460;2022-12-24T03:16:22;11.70;94.80
6536;DHT22;34330;52.08032700;5.40923460;2022-12-24T03:18:52;11.70;94.90
6536;DHT22;34330;52.08032700;5.40923460;2022-12-24T03:21:24;11.70;94.90
6536;DHT22;34330;52.08032700;5.40923460;2022-12-24T03:23:54;11.70;95.00
6536;DHT22;34330;52.08032700;5.40923460;2022-12-24T03:26:22;11.70;95.10
6536;DHT22;34330;52.08032700;5.40923460;2022-12-24T03:28:51;11.60;95.10
6536;DHT22;34330;52.08032700;5.40923460;2022-12-24T03:31:21;11.60;95.10
6536;DHT22;34330;52.08032700;5.40923460;2022-12-24T03:33:50;11.60;95.20
6536;DHT22;34330;52.08032700;5.40923460;2022-12-24T03:36:18;11.70;95.40
6536;DHT22;34330;52.08032700;5.40923460;2022-12-24T03:38:48;11.70;95.40
6536;DHT22;34330;52.08032700;5.40923460;2022-12-24T03:41:15;11.70;95.40
6536;DHT22;34330;52.08032700;5.40923460;2022-12-24T03:43:43;11.70;95.60
6536;DHT22;34330;52.08032700;5.40923460;2022-12-24T03:46:11;11.70;95.90
6536;DHT22;34330;52.08032700;5.40923460;2022-12-24T03:48:40;11.70;95.70
6536;DHT22;34330;52.08032700;5.40923460;2022-12-24T03:51:16;11.70;95.70
6536;DHT22;34330;52.08032700;5.40923460;2022-12-24T03:53:44;11.80;95.90
6536;DHT22;34330;52.08032700;5.40923460;2022-12-24T03:56:12;11.80;95.90
6536;DHT22;34330;52.08032700;5.40923460;2022-12-24T03:58:40;11.80;95.90
6536;DHT22;34330;52.08032700;5.40923460;2022-12-24T04:01:08;11.90;96.00
6536;DHT22;34330;52.08032700;5.40923460;2022-12-24T04:03:37;11.90;96.00
6536;DHT22;34330;52.08032700;5.40923460;2022-12-24T04:06:08;11.90;96.00
6536;DHT22;34330;52.08032700;5.40923460;2022-12-24T04:08:36;11.90;96.10
6536;DHT22;34330;52.08032700;5.40923460;2022-12-24T04:11:06;11.90;96.10
6536;DHT22;34330;52.08032700;5.40923460;2022-12-24T04:13:36;12.00;96.20
6536;DHT22;34330;52.08032700;5.40923460;2022-12-24T04:16:06;12.00;96.20
6536;DHT22;34330;52.08032700;5.40923460;2022-12-24T04:18:35;12.00;96.20
6536;DHT22;34330;52.08032700;5.40923460;2022-12-24T04:21:03;12.00;96.20
6536;DHT22;34330;52.08032700;5.40923460;2022-12-24T04:23:34;12.10;96.20
6536;DHT22;34330;52.08032700;5.40923460;2022-12-24T04:26:05;12.10;96.20
6536;DHT22;34330;52.08032700;5.40923460;2022-12-24T04:28:33;12.10;96.20
6536;DHT22;34330;52.08032700;5.40923460;2022-12-24T04:31:04;12.20;96.20
6536;DHT22;34330;52.08032700;5.40923460;2022-12-24T04:33:33;12.20;96.20
6536;DHT22;34330;52.08032700;5.40923460;2022-12-24T04:36:02;12.20;96.20
6536;DHT22;34330;52.08032700;5.40923460;2022-12-24T04:38:30;12.20;96.20
6536;DHT22;34330;52.08032700;5.40923460;2022-12-24T04:41:02;12.30;96.30
6536;DHT22;34330;52.08032700;5.40923460;2022-12-24T04:43:31;12.30;96.10
6536;DHT22;34330;52.08032700;5.40923460;2022-12-24T04:46:04;12.30;96.30
6536;DHT22;34330;52.08032700;5.40923460;2022-12-24T04:48:32;12.30;96.30
6536;DHT22;34330;52.08032700;5.40923460;2022-12-24T04:51:01;12.40;96.30
6536;DHT22;34330;52.08032700;5.40923460;2022-12-24T04:53:30;12.40;96.20
6536;DHT22;34330;52.08032700;5.40923460;2022-12-24T04:55:59;12.40;96.20
6536;DHT22;34330;52.08032700;5.40923460;2022-12-24T04:58:28;12.40;96.20
6536;DHT22;34330;52.08032700;5.40923460;2022-12-24T05:00:56;12.40;96.20
6536;DHT22;34330;52.08032700;5.40923460;2022-12-24T05:03:24;12.40;96.20
6536;DHT22;34330;52.08032700;5.40923460;2022-12-24T05:05:52;12.50;96.20
6536;DHT22;34330;52.08032700;5.40923460;2022-12-24T05:08:27;12.50;96.20
6536;DHT22;34330;52.08032700;5.40923460;2022-12-24T05:10:55;12.50;96.20
6536;DHT22;34330;52.08032700;5.40923460;2022-12-24T05:13:25;12.50;96.20
6536;DHT22;34330;52.08032700;5.40923460;2022-12-24T05:16:08;11.00;95.50
6536;DHT22;34330;52.08032700;5.40923460;2022-12-24T05:18:37;12.50;96.20
6536;DHT22;34330;52.08032700;5.40923460;2022-12-24T05:21:08;12.50;96.30
6536;DHT22;34330;52.08032700;5.40923460;2022-12-24T05:23:37;12.60;96.30
6536;DHT22;34330;52.08032700;5.40923460;2022-12-24T05:26:28;12.60;96.30
6536;DHT22;34330;52.08032700;5.40923460;2022-12-24T05:28:59;12.60;96.30
6536;DHT22;34330;52.08032700;5.40923460;2022-12-24T05:31:29;12.60;96.40
6536;DHT22;34330;52.08032700;5.40923460;2022-12-24T05:33:58;12.60;96.40
6536;DHT22;34330;52.08032700;5.40923460;2022-12-24T05:36:26;12.60;96.30
6536;DHT22;34330;52.08032700;5.40923460;2022-12-24T05:38:54;12.70;96.40
6536;DHT22;34330;52.08032700;5.40923460;2022-12-24T05:41:23;12.70;96.40
6536;DHT22;34330;52.08032700;5.40923460;2022-12-24T05:43:51;12.70;96.40
6536;DHT22;34330;52.08032700;5.40923460;2022-12-24T05:46:23;12.70;96.40
6536;DHT22;34330;52.08032700;5.40923460;2022-12-24T05:48:52;12.70;96.50
6536;DHT22;34330;52.08032700;5.40923460;2022-12-24T05:51:21;12.70;96.50
6536;DHT22;34330;52.08032700;5.40923460;2022-12-24T05:53:50;12.80;96.60
6536;DHT22;34330;52.08032700;5.40923460;2022-12-24T05:56:20;12.80;96.60
6536;DHT22;34330;52.08032700;5.40923460;2022-12-24T05:58:52;12.80;96.50
6536;DHT22;34330;52.08032700;5.40923460;2022-12-24T06:01:22;12.90;96.60
6536;DHT22;34330;52.08032700;5.40923460;2022-12-24T06:03:51;12.80;96.60
6536;DHT22;34330;52.08032700;5.40923460;2022-12-24T06:06:22;12.90;96.60
6536;DHT22;34330;52.08032700;5.40923460;2022-12-24T06:08:51;12.90;96.60
6536;DHT22;34330;52.08032700;5.40923460;2022-12-24T06:11:22;12.90;96.60
6536;DHT22;34330;52.08032700;5.40923460;2022-12-24T06:13:51;12.90;96.50
6536;DHT22;34330;52.08032700;5.40923460;2022-12-24T06:16:22;12.90;96.50
6536;DHT22;34330;52.08032700;5.40923460;2022-12-24T06:18:51;12.90;96.50
6536;DHT22;34330;52.08032700;5.40923460;2022-12-24T06:21:19;12.90;96.50
6536;DHT22;34330;52.08032700;5.40923460;2022-12-24T06:23:49;12.90;96.50
6536;DHT22;34330;52.08032700;5.40923460;2022-12-24T06:26:19;12.90;96.40
6536;DHT22;34330;52.08032700;5.40923460;2022-12-24T06:28:49;12.90;96.50
6536;DHT22;34330;52.08032700;5.40923460;2022-12-24T06:31:19;12.90;96.40
6536;DHT22;34330;52.08032700;5.40923460;2022-12-24T06:33:51;12.90;96.40
6536;DHT22;34330;52.08032700;5.40923460;2022-12-24T06:36:23;13.00;96.40
6536;DHT22;34330;52.08032700;5.40923460;2022-12-24T06:38:53;12.90;96.30
6536;DHT22;34330;52.08032700;5.40923460;2022-12-24T06:41:22;12.90;96.40
6536;DHT22;34330;52.08032700;5.40923460;2022-12-24T06:43:51;12.90;96.40
6536;DHT22;34330;52.08032700;5.40923460;2022-12-24T06:46:19;12.90;96.40
6536;DHT22;34330;52.08032700;5.40923460;2022-12-24T06:48:50;13.00;96.40
6536;DHT22;34330;52.08032700;5.40923460;2022-12-24T06:51:18;13.00;96.50
6536;DHT22;34330;52.08032700;5.40923460;2022-12-24T06:53:47;13.00;96.50
6536;DHT22;34330;52.08032700;5.40923460;2022-12-24T06:56:17;13.00;96.50
6536;DHT22;34330;52.08032700;5.40923460;2022-12-24T06:58:47;13.00;96.50
6536;DHT22;34330;52.08032700;5.40923460;2022-12-24T07:01:18;13.00;96.40
6536;DHT22;34330;52.08032700;5.40923460;2022-12-24T07:03:47;13.00;96.40
6536;DHT22;34330;52.08032700;5.40923460;2022-12-24T07:06:22;13.00;96.40
6536;DHT22;34330;52.08032700;5.40923460;2022-12-24T07:08:50;14.10;96.80
6536;DHT22;34330;52.08032700;5.40923460;2022-12-24T07:11:19;13.00;96.30
6536;DHT22;34330;52.08032700;5.40923460;2022-12-24T07:13:47;13.00;96.30
6536;DHT22;34330;52.08032700;5.40923460;2022-12-24T07:16:16;13.00;96.30
6536;DHT22;34330;52.08032700;5.40923460;2022-12-24T07:18:44;13.00;96.20
6536;DHT22;34330;52.08032700;5.40923460;2022-12-24T07:21:12;13.00;96.20
6536;DHT22;34330;52.08032700;5.40923460;2022-12-24T07:23:41;13.00;96.10
6536;DHT22;34330;52.08032700;5.40923460;2022-12-24T07:26:09;13.00;96.00
6536;DHT22;34330;52.08032700;5.40923460;2022-12-24T07:28:37;12.90;96.00
6536;DHT22;34330;52.08032700;5.40923460;2022-12-24T07:31:05;12.90;96.00
6536;DHT22;34330;52.08032700;5.40923460;2022-12-24T07:33:33;12.90;96.00
6536;DHT22;34330;52.08032700;5.40923460;2022-12-24T07:36:03;12.90;96.00
6536;DHT22;34330;52.08032700;5.40923460;2022-12-24T07:38:32;12.90;96.00
6536;DHT22;34330;52.08032700;5.40923460;2022-12-24T07:41:02;12.90;96.00
6536;DHT22;34330;52.08032700;5.40923460;2022-12-24T07:43:32;12.90;96.00
6536;DHT22;34330;52.08032700;5.40923460;2022-12-24T07:46:01;13.00;96.00
6536;DHT22;34330;52.08032700;5.40923460;2022-12-24T07:48:29;11.50;95.40
6536;DHT22;34330;52.08032700;5.40923460;2022-12-24T07:50:58;12.90;96.00
6536;DHT22;34330;52.08032700;5.40923460;2022-12-24T07:53:27;12.90;96.00
6536;DHT22;34330;52.08032700;5.40923460;2022-12-24T07:55:55;13.00;96.00
6536;DHT22;34330;52.08032700;5.40923460;2022-12-24T07:58:25;12.90;95.90
6536;DHT22;34330;52.08032700;5.40923460;2022-12-24T08:00:57;12.90;95.90
6536;DHT22;34330;52.08032700;5.40923460;2022-12-24T08:03:26;12.90;95.90
6536;DHT22;34330;52.08032700;5.40923460;2022-12-24T08:05:54;13.00;95.90
6536;DHT22;34330;52.08032700;5.40923460;2022-12-24T08:08:23;12.90;95.90
6536;DHT22;34330;52.08032700;5.40923460;2022-12-24T08:10:51;12.90;95.90
6536;DHT22;34330;52.08032700;5.40923460;2022-12-24T08:13:19;12.90;95.90
6536;DHT22;34330;52.08032700;5.40923460;2022-12-24T08:15:51;12.90;95.80
6536;DHT22;34330;52.08032700;5.40923460;2022-12-24T08:18:19;12.90;95.80
6536;DHT22;34330;52.08032700;5.40923460;2022-12-24T08:20:48;12.90;95.70
6536;DHT22;34330;52.08032700;5.40923460;2022-12-24T08:23:16;12.90;95.80
6536;DHT22;34330;52.08032700;5.40923460;2022-12-24T08:25:47;12.90;95.90
6536;DHT22;34330;52.08032700;5.40923460;2022-12-24T08:28:18;12.90;95.90
6536;DHT22;34330;52.08032700;5.40923460;2022-12-24T08:30:49;12.90;96.00
6536;DHT22;34330;52.08032700;5.40923460;2022-12-24T08:33:18;12.90;96.00
6536;DHT22;34330;52.08032700;5.40923460;2022-12-24T08:35:47;12.90;96.00
6536;DHT22;34330;52.08032700;5.40923460;2022-12-24T08:38:16;12.90;96.00
6536;DHT22;34330;52.08032700;5.40923460;2022-12-24T08:40:45;12.90;96.00
6536;DHT22;34330;52.08032700;5.40923460;2022-12-24T08:43:16;12.90;96.10
6536;DHT22;34330;52.08032700;5.40923460;2022-12-24T08:45:44;12.90;96.00
6536;DHT22;34330;52.08032700;5.40923460;2022-12-24T08:48:17;12.90;96.10
6536;DHT22;34330;52.08032700;5.40923460;2022-12-24T08:50:45;13.00;96.10
6536;DHT22;34330;52.08032700;5.40923460;2022-12-24T08:53:13;13.00;96.00
6536;DHT22;34330;52.08032700;5.40923460;2022-12-24T08:55:41;13.00;96.00
6536;DHT22;34330;52.08032700;5.40923460;2022-12-24T08:58:09;13.00;96.10
6536;DHT22;34330;52.08032700;5.40923460;2022-12-24T09:10:27;13.10;96.10
6536;DHT22;34330;52.08032700;5.40923460;2022-12-24T09:12:55;13.10;96.00
6536;DHT22;34330;52.08032700;5.40923460;2022-12-24T09:15:25;13.20;96.00
6536;DHT22;34330;52.08032700;5.40923460;2022-12-24T09:17:53;13.10;95.90
6536;DHT22;34330;52.08032700;5.40923460;2022-12-24T09:20:21;13.20;96.00
6536;DHT22;34330;52.08032700;5.40923460;2022-12-24T09:22:50;13.30;96.00
6536;DHT22;34330;52.08032700;5.40923460;2022-12-24T09:25:18;13.20;96.00
6536;DHT22;34330;52.08032700;5.40923460;2022-12-24T09:27:47;13.20;96.00
6536;DHT22;34330;52.08032700;5.40923460;2022-12-24T09:30:15;13.20;96.00
6536;DHT22;34330;52.08032700;5.40923460;2022-12-24T09:32:43;13.30;96.00
6536;DHT22;34330;52.08032700;5.40923460;2022-12-24T09:35:12;13.20;96.00
6536;DHT22;34330;52.08032700;5.40923460;2022-12-24T09:37:40;13.30;96.00
6536;DHT22;34330;52.08032700;5.40923460;2022-12-24T09:40:18;13.30;95.90
6536;DHT22;34330;52.08032700;5.40923460;2022-12-24T09:42:52;13.30;95.90
6536;DHT22;34330;52.08032700;5.40923460;2022-12-24T09:45:23;13.30;95.90
6536;DHT22;34330;52.08032700;5.40923460;2022-12-24T09:47:56;13.30;95.90
6536;DHT22;34330;52.08032700;5.40923460;2022-12-24T09:50:34;13.40;95.90
6536;DHT22;34330;52.08032700;5.40923460;2022-12-24T09:53:13;13.40;95.90
6536;DHT22;34330;52.08032700;5.40923460;2022-12-24T09:55:47;13.40;95.70
6536;DHT22;34330;52.08032700;5.40923460;2022-12-24T09:58:22;13.50;95.80
6536;DHT22;34330;52.08032700;5.40923460;2022-12-24T10:00:51;13.40;95.70
6536;DHT22;34330;52.08032700;5.40923460;2022-12-24T10:03:20;13.40;95.70
6536;DHT22;34330;52.08032700;5.40923460;2022-12-24T10:06:03;13.50;95.60
6536;DHT22;34330;52.08032700;5.40923460;2022-12-24T10:08:39;13.40;95.60
6536;DHT22;34330;52.08032700;5.40923460;2022-12-24T10:11:15;13.40;95.60
6536;DHT22;34330;52.08032700;5.40923460;2022-12-24T10:14:09;13.50;95.70
6536;DHT22;34330;52.08032700;5.40923460;2022-12-24T10:16:50;13.50;95.60
6536;DHT22;34330;52.08032700;5.40923460;2022-12-24T10:19:28;13.50;95.50
6536;DHT22;34330;52.08032700;5.40923460;2022-12-24T10:22:06;13.50;95.60
6536;DHT22;34330;52.08032700;5.40923460;2022-12-24T10:24:42;13.50;95.60
6536;DHT22;34330;52.08032700;5.40923460;2022-12-24T10:27:18;13.50;95.60
6536;DHT22;34330;52.08032700;5.40923460;2022-12-24T10:29:55;13.50;95.60
6536;DHT22;34330;52.08032700;5.40923460;2022-12-24T10:32:27;13.50;95.60
6536;DHT22;34330;52.08032700;5.40923460;2022-12-24T10:34:59;13.60;95.70
6536;DHT22;34330;52.08032700;5.40923460;2022-12-24T10:37:29;13.60;95.60
6536;DHT22;34330;52.08032700;5.40923460;2022-12-24T10:39:58;13.60;95.60
6536;DHT22;34330;52.08032700;5.40923460;2022-12-24T10:42:39;13.60;95.60
6536;DHT22;34330;52.08032700;5.40923460;2022-12-24T10:45:20;13.60;95.50
6536;DHT22;34330;52.08032700;5.40923460;2022-12-24T10:47:53;13.70;95.50
6536;DHT22;34330;52.08032700;5.40923460;2022-12-24T10:50:27;13.70;95.60
6536;DHT22;34330;52.08032700;5.40923460;2022-12-24T10:53:03;13.70;95.50
6536;DHT22;34330;52.08032700;5.40923460;2022-12-24T10:55:32;13.70;95.50
6536;DHT22;34330;52.08032700;5.40923460;2022-12-24T10:58:01;13.70;95.40
6536;DHT22;34330;52.08032700;5.40923460;2022-12-24T11:00:40;13.80;95.40
6536;DHT22;34330;52.08032700;5.40923460;2022-12-24T11:03:22;13.80;95.40
6536;DHT22;34330;52.08032700;5.40923460;2022-12-24T11:06:03;13.80;95.30
6536;DHT22;34330;52.08032700;5.40923460;2022-12-24T11:08:32;13.80;95.40
6536;DHT22;34330;52.08032700;5.40923460;2022-12-24T11:11:02;13.80;95.40
6536;DHT22;34330;52.08032700;5.40923460;2022-12-24T11:13:32;13.80;95.30
6536;DHT22;34330;52.08032700;5.40923460;2022-12-24T11:16:09;13.90;95.20
6536;DHT22;34330;52.08032700;5.40923460;2022-12-24T11:18:45;13.90;95.10
6536;DHT22;34330;52.08032700;5.40923460;2022-12-24T11:21:22;13.90;95.10
6536;DHT22;34330;52.08032700;5.40923460;2022-12-24T11:23:52;13.90;94.90
6536;DHT22;34330;52.08032700;5.40923460;2022-12-24T11:26:23;13.90;94.80
6536;DHT22;34330;52.08032700;5.40923460;2022-12-24T11:29:19;13.90;94.60
6536;DHT22;34330;52.08032700;5.40923460;2022-12-24T11:31:51;13.90;94.20
6536;DHT22;34330;52.08032700;5.40923460;2022-12-24T11:34:26;13.90;94.50
6536;DHT22;34330;52.08032700;5.40923460;2022-12-24T11:37:07;13.90;94.40
6536;DHT22;34330;52.08032700;5.40923460;2022-12-24T11:39:45;13.90;94.40
6536;DHT22;34330;52.08032700;5.40923460;2022-12-24T11:42:28;13.90;94.50
6536;DHT22;34330;52.08032700;5.40923460;2022-12-24T11:44:59;13.90;94.30
6536;DHT22;34330;52.08032700;5.40923460;2022-12-24T11:47:33;13.90;94.30
6536;DHT22;34330;52.08032700;5.40923460;2022-12-24T11:50:24;13.90;94.20
6536;DHT22;34330;52.08032700;5.40923460;2022-12-24T11:52:58;13.90;94.00
6536;DHT22;34330;52.08032700;5.40923460;2022-12-24T11:55:40;13.90;94.10
6536;DHT22;34330;52.08032700;5.40923460;2022-12-24T11:58:18;13.90;94.10
6536;DHT22;34330;52.08032700;5.40923460;2022-12-24T12:00:50;13.90;94.10
6536;DHT22;34330;52.08032700;5.40923460;2022-12-24T12:03:28;13.90;94.20
6536;DHT22;34330;52.08032700;5.40923460;2022-12-24T12:05:58;13.90;94.20
6536;DHT22;34330;52.08032700;5.40923460;2022-12-24T12:08:28;13.90;94.30
6536;DHT22;34330;52.08032700;5.40923460;2022-12-24T12:10:57;14.00;94.40
6536;DHT22;34330;52.08032700;5.40923460;2022-12-24T12:13:28;14.00;94.40
6536;DHT22;34330;52.08032700;5.40923460;2022-12-24T12:16:09;14.00;94.30
6536;DHT22;34330;52.08032700;5.40923460;2022-12-24T12:18:41;14.10;94.20
6536;DHT22;34330;52.08032700;5.40923460;2022-12-24T12:21:16;14.10;94.10
6536;DHT22;34330;52.08032700;5.40923460;2022-12-24T12:23:48;14.10;94.10
6536;DHT22;34330;52.08032700;5.40923460;2022-12-24T12:26:21;14.20;94.10
6536;DHT22;34330;52.08032700;5.40923460;2022-12-24T12:28:53;14.20;94.00
6536;DHT22;34330;52.08032700;5.40923460;2022-12-24T12:31:25;14.20;93.80
6536;DHT22;34330;52.08032700;5.40923460;2022-12-24T12:33:59;14.20;93.80
6536;DHT22;34330;52.08032700;5.40923460;2022-12-24T12:36:32;14.20;93.70
6536;DHT22;34330;52.08032700;5.40923460;2022-12-24T12:39:00;14.20;93.70
6536;DHT22;34330;52.08032700;5.40923460;2022-12-24T12:41:44;14.20;93.60
6536;DHT22;34330;52.08032700;5.40923460;2022-12-24T12:44:33;14.20;93.40
6536;DHT22;34330;52.08032700;5.40923460;2022-12-24T12:47:15;14.20;93.30
6536;DHT22;34330;52.08032700;5.40923460;2022-12-24T12:50:01;14.20;93.30
6536;DHT22;34330;52.08032700;5.40923460;2022-12-24T12:52:41;14.20;93.40
6536;DHT22;34330;52.08032700;5.40923460;2022-12-24T12:55:23;14.20;93.20
6536;DHT22;34330;52.08032700;5.40923460;2022-12-24T12:57:58;14.20;93.10
6536;DHT22;34330;52.08032700;5.40923460;2022-12-24T13:00:28;14.20;93.20
6536;DHT22;34330;52.08032700;5.40923460;2022-12-24T13:06:18;14.10;93.10
6536;DHT22;34330;52.08032700;5.40923460;2022-12-24T13:09:00;12.10;92.30
6536;DHT22;34330;52.08032700;5.40923460;2022-12-24T13:11:46;14.20;93.20
6536;DHT22;34330;52.08032700;5.40923460;2022-12-24T13:14:47;14.10;93.10
6536;DHT22;34330;52.08032700;5.40923460;2022-12-24T13:17:38;14.10;92.80
6536;DHT22;34330;52.08032700;5.40923460;2022-12-24T13:20:16;14.10;92.90
6536;DHT22;34330;52.08032700;5.40923460;2022-12-24T13:22:52;14.20;93.00
6536;DHT22;34330;52.08032700;5.40923460;2022-12-24T13:25:24;14.10;93.00
6536;DHT22;34330;52.08032700;5.40923460;2022-12-24T13:27:52;14.20;93.20
6536;DHT22;34330;52.08032700;5.40923460;2022-12-24T13:30:36;14.20;93.20
6536;DHT22;34330;52.08032700;5.40923460;2022-12-24T13:33:09;14.20;92.90
6536;DHT22;34330;52.08032700;5.40923460;2022-12-24T13:35:56;14.20;93.00
6536;DHT22;34330;52.08032700;5.40923460;2022-12-24T13:38:40;14.20;92.80
6536;DHT22;34330;52.08032700;5.40923460;2022-12-24T13:41:37;14.30;92.80
6536;DHT22;34330;52.08032700;5.40923460;2022-12-24T13:44:22;14.20;92.60
6536;DHT22;34330;52.08032700;5.40923460;2022-12-24T13:46:53;14.20;92.70
6536;DHT22;34330;52.08032700;5.40923460;2022-12-24T13:49:29;14.20;92.80
6536;DHT22;34330;52.08032700;5.40923460;2022-12-24T13:52:25;14.30;92.80
6536;DHT22;34330;52.08032700;5.40923460;2022-12-24T13:55:06;14.30;92.60
6536;DHT22;34330;52.08032700;5.40923460;2022-12-24T13:57:39;14.30;92.60
6536;DHT22;34330;52.08032700;5.40923460;2022-12-24T14:00:25;14.30;92.60
6536;DHT22;34330;52.08032700;5.40923460;2022-12-24T14:02:58;14.20;92.50
6536;DHT22;34330;52.08032700;5.40923460;2022-12-24T14:05:31;14.30;92.70
6536;DHT22;34330;52.08032700;5.40923460;2022-12-24T14:08:03;14.20;92.70
6536;DHT22;34330;52.08032700;5.40923460;2022-12-24T14:10:38;14.30;92.80
6536;DHT22;34330;52.08032700;5.40923460;2022-12-24T14:16:14;14.20;92.50
6536;DHT22;34330;52.08032700;5.40923460;2022-12-24T14:18:45;14.20;92.70